Time;durP1;ratioP1;P1;durP2;ratioP2;P2;SDS_P1;SDS_P2;PMS_P1;PMS_P2;Temp;Humidity;BMP_temperature;BMP_pressure;BME280_temperature;BME280_humidity;BME280_pressure;Samples;Min_cycle;Max_cycle;Signal;HPM_P1;HPM_P2
2021/12/05 00:20:07;;;;;;;7.20;2.55;;;5.20;99.90;;;;;;5086753;28;20314;-80
2021/12/05 00:22:59;;;;;;;4.70;1.70;;;4.00;99.90;;;;;;5073672;28;20032;-81
2021/12/05 00:26:06;;;;;;;3.10;1.88;;;5.90;99.90;;;;;;5057139;28;20048;-83
2021/12/05 00:43:05;;;;;;;4.78;2.75;;;4.80;99.90;;;;;;5078759;28;20045;-81
2021/12/05 01:16:20;;;;;;;11.15;2.83;;;3.30;99.90;;;;;;5069314;28;20044;-82
2021/12/05 01:19:22;;;;;;;5.45;3.40;;;5.00;99.90;;;;;;5028945;28;20063;-82
2021/12/05 01:22:10;;;;;;;6.75;4.10;;;5.10;99.90;;;;;;5068559;28;20056;-81
2021/12/05 01:37:32;;;;;;;8.20;3.38;;;5.20;99.90;;;;;;5074745;28;20045;-80
2021/12/05 01:44:10;;;;;;;2.50;2.05;;;5.20;99.90;;;;;;5068577;28;20059;-79
2021/12/05 01:49:09;;;;;;;8.13;2.92;;;5.30;99.90;;;;;;5086965;28;20033;-79
2021/12/05 01:57:44;;;;;;;5.53;2.35;;;5.20;99.90;;;;;;5087000;28;20067;-80
2021/12/05 02:33:29;;;;;;;5.50;1.65;;;5.30;99.90;;;;;;4897626;29;20061;-78
2021/12/05 02:39:41;;;;;;;5.88;2.53;;;5.90;99.90;;;;;;4938992;29;20048;-80
2021/12/05 02:42:55;;;;;;;6.20;3.20;;;5.30;99.90;;;;;;4926018;29;20047;-81
2021/12/05 02:45:57;;;;;;;10.65;2.75;;;5.00;99.90;;;;;;4934902;29;20353;-82
2021/12/05 02:48:24;;;;;;;3.20;2.03;;;5.30;99.90;;;;;;4953630;28;20076;-82
2021/12/05 02:54:26;;;;;;;3.03;1.45;;;5.30;99.90;;;;;;5067849;28;20045;-80
2021/12/05 02:58:43;;;;;;;;;;;;;;;;;;;;;
2021/12/05 03:02:04;;;;;;;10.25;2.15;;;4.90;99.90;;;;;;5064571;28;20228;-80
2021/12/05 03:04:54;;;;;;;4.57;1.75;;;5.50;99.90;;;;;;5074568;28;20044;-78
2021/12/05 03:07:37;;;;;;;5.18;2.63;;;5.60;99.90;;;;;;5083670;28;20045;-81
2021/12/05 03:10:25;;;;;;;2.90;1.92;;;5.80;99.90;;;;;;5078763;28;20045;-81
2021/12/05 03:13:35;;;;;;;2.45;2.03;;;5.50;99.90;;;;;;5079148;28;20055;-80
2021/12/05 03:17:04;;;;;;;4.40;2.90;;;5.60;99.90;;;;;;5077732;28;20052;-81
2021/12/05 03:28:24;;;;;;;3.00;1.95;;;5.70;99.90;;;;;;5074945;28;20032;-80
2021/12/05 03:31:50;;;;;;;5.28;1.90;;;5.50;99.90;;;;;;5054295;28;20082;-80
2021/12/05 03:36:12;;;;;;;6.78;2.20;;;5.60;99.90;;;;;;5061517;28;20045;-81
2021/12/05 03:39:36;;;;;;;3.55;1.70;;;4.20;99.90;;;;;;5028737;28;20037;-80
2021/12/05 03:43:24;;;;;;;;;;;;;;;;;;;;;
2021/12/05 03:50:44;;;;;;;3.45;1.80;;;6.70;99.90;;;;;;5073247;28;20061;-80
2021/12/05 03:54:03;;;;;;;2.08;1.98;;;5.60;99.90;;;;;;5072381;28;20059;-80
2021/12/05 03:57:48;;;;;;;;;;;;;;;;;;;;;
2021/12/05 04:01:03;;;;;;;2.47;2.30;;;5.60;99.90;;;;;;4975752;28;20080;-81
2021/12/05 04:04:40;;;;;;;2.72;1.95;;;5.70;99.90;;;;;;5008973;28;20177;-81
2021/12/05 04:07:58;;;;;;;1.55;1.45;;;5.60;99.90;;;;;;4963744;28;20054;-81
2021/12/05 04:11:46;;;;;;;2.67;1.98;;;5.60;99.90;;;;;;4988016;28;20051;-82
2021/12/05 04:15:15;;;;;;;;;;;;;;;;;;;;;
2021/12/05 04:18:46;;;;;;;3.45;1.65;;;6.50;99.90;;;;;;5063508;28;20056;-81
2021/12/05 04:22:36;;;;;;;2.70;1.65;;;5.70;99.90;;;;;;5049900;28;20045;-80
2021/12/05 04:26:04;;;;;;;2.15;1.58;;;5.70;99.90;;;;;;5032455;28;20040;-81
2021/12/05 04:29:42;;;;;;;;;;;;;;;;;;;;;
2021/12/05 04:33:31;;;;;;;5.88;2.80;;;5.70;99.90;;;;;;4958165;28;20054;-80
2021/12/05 04:37:03;;;;;;;1.70;1.60;;;5.70;99.90;;;;;;4979804;28;20050;-79
2021/12/05 04:40:52;;;;;;;2.95;1.90;;;5.60;99.90;;;;;;5007235;28;20072;-80
2021/12/05 04:43:53;;;;;;;3.53;1.90;;;5.10;99.90;;;;;;4996275;28;20058;-81
2021/12/05 04:46:57;;;;;;;4.82;2.05;;;5.60;99.90;;;;;;5040983;28;20048;-79
2021/12/05 04:49:36;;;;;;;1.85;1.52;;;6.10;99.90;;;;;;5041302;28;20049;-78
2021/12/05 04:52:27;;;;;;;;;;;;;;;;;;;;;
2021/12/05 04:55:37;;;;;;;2.00;1.88;;;5.60;99.90;;;;;;5084172;28;20051;-79
2021/12/05 05:02:16;;;;;;;4.47;2.22;;;5.50;99.90;;;;;;5082555;28;20557;-80
2021/12/05 05:05:44;;;;;;;4.47;1.30;;;6.00;99.90;;;;;;5089053;28;20059;-79
2021/12/05 05:08:25;;;;;;;4.13;1.92;;;5.50;99.90;;;;;;5073649;28;20054;-79
2021/12/05 05:11:00;;;;;;;1.70;1.60;;;5.50;99.90;;;;;;5091583;28;20036;-79
2021/12/05 05:13:37;;;;;;;3.22;1.90;;;5.70;99.90;;;;;;5090236;28;20060;-80
2021/12/05 05:16:11;;;;;;;3.67;2.08;;;5.50;99.90;;;;;;5072339;28;20025;-78
2021/12/05 05:18:53;;;;;;;1.73;1.63;;;5.50;99.90;;;;;;5074467;28;20056;-81
2021/12/05 05:27:41;;;;;;;2.35;1.83;;;5.60;99.90;;;;;;5073273;28;20041;-77
2021/12/05 05:50:01;;;;;;;2.05;1.65;;;4.20;99.90;;;;;;5072935;28;20060;-78
2021/12/05 05:52:43;;;;;;;1.80;1.70;;;6.60;99.90;;;;;;5056072;28;20052;-80
2021/12/05 05:55:19;;;;;;;1.70;1.60;;;5.80;99.90;;;;;;5091708;28;20045;-80
2021/12/05 06:03:47;;;;;;;7.20;3.58;;;4.80;99.90;;;;;;5058038;28;20037;-80
2021/12/05 06:06:26;;;;;;;1.92;1.65;;;5.50;99.90;;;;;;5053038;28;20045;-79
2021/12/05 06:09:52;;;;;;;3.45;2.22;;;5.50;99.90;;;;;;5057239;28;20047;-81
2021/12/05 06:12:33;;;;;;;5.30;3.40;;;5.50;99.90;;;;;;5051311;28;20045;-78
2021/12/05 06:15:18;;;;;;;;;;;;;;;;;;;;;
2021/12/05 06:17:47;;;;;;;2.15;1.73;;;5.60;99.90;;;;;;5076155;28;20040;-80
2021/12/05 06:20:35;;;;;;;;;;;;;;;;;;;;;
2021/12/05 06:23:27;;;;;;;5.60;1.70;;;5.30;99.90;;;;;;5059108;28;20065;-80
2021/12/05 06:26:40;;;;;;;2.65;1.60;;;5.60;99.90;;;;;;5052508;28;20053;-81
2021/12/05 06:29:21;;;;;;;3.58;1.98;;;5.50;99.90;;;;;;5087617;28;20053;-80
2021/12/05 06:46:41;;;;;;;1.83;1.73;;;5.30;99.90;;;;;;5077155;28;20049;-81
2021/12/05 06:50:52;;;;;;;;;;;;;;;;;;;;;
2021/12/05 06:54:12;;;;;;;4.07;2.17;;;5.20;99.90;;;;;;5071738;28;20063;-81
2021/12/05 06:57:09;;;;;;;3.60;2.28;;;6.40;99.90;;;;;;5077413;28;20063;-81
2021/12/05 07:00:14;;;;;;;5.82;2.78;;;5.50;99.90;;;;;;5032904;28;20050;-81
2021/12/05 07:03:33;;;;;;;2.83;2.33;;;5.20;99.90;;;;;;5017348;28;20038;-79
2021/12/05 07:06:38;;;;;;;;;;;;;;;;;;;;;
2021/12/05 07:09:16;;;;;;;3.47;2.35;;;5.20;99.90;;;;;;5012176;28;20057;-79
2021/12/05 07:15:09;;;;;;;4.05;2.22;;;5.10;99.90;;;;;;4997218;28;20048;-81
2021/12/05 07:23:33;;;;;;;5.43;3.05;;;5.10;99.90;;;;;;5073292;28;20220;-81
2021/12/05 07:26:11;;;;;;;1.95;1.80;;;5.00;99.90;;;;;;5055406;28;20053;-81
2021/12/05 07:43:49;;;;;;;2.47;2.28;;;5.10;99.90;;;;;;5056497;28;20063;-80
2021/12/05 07:46:36;;;;;;;5.97;2.30;;;5.10;99.90;;;;;;5043360;28;20053;-81
2021/12/05 07:49:10;;;;;;;3.13;2.75;;;5.00;99.90;;;;;;5077231;28;20040;-82
2021/12/05 07:51:48;;;;;;;4.18;2.50;;;5.00;99.90;;;;;;5058895;28;20054;-81
2021/12/05 07:54:38;;;;;;;2.50;2.03;;;5.20;99.90;;;;;;5087201;28;20053;-81
2021/12/05 07:57:41;;;;;;;3.88;2.78;;;5.10;99.90;;;;;;5067194;28;20045;-83
2021/12/05 08:01:15;;;;;;;2.80;2.38;;;5.00;99.90;;;;;;5046699;28;20048;-80
2021/12/05 08:15:25;;;;;;;3.70;2.97;;;5.20;99.90;;;;;;5067088;28;20049;-82
2021/12/05 08:18:06;;;;;;;4.75;3.17;;;5.10;99.90;;;;;;5060847;28;20048;-82
2021/12/05 08:21:32;;;;;;;7.53;2.58;;;6.30;99.90;;;;;;5049029;28;20045;-83
2021/12/05 08:24:48;;;;;;;8.30;3.55;;;5.10;99.90;;;;;;5030736;28;20064;-82
2021/12/05 08:27:18;;;;;;;4.30;2.28;;;5.10;99.90;;;;;;5079899;28;20047;-82
2021/12/05 08:29:55;;;;;;;5.10;3.35;;;5.10;99.90;;;;;;5069353;28;20040;-83
2021/12/05 08:40:39;;;;;;;5.80;2.58;;;5.20;99.90;;;;;;5080495;28;20051;-80
2021/12/05 09:24:30;;;;;;;;;;;;;;;;;;;;;
2021/12/05 09:27:56;;;;;;;5.30;2.58;;;5.40;99.90;;;;;;5061898;28;20037;-82
2021/12/05 10:13:26;;;;;;;4.55;2.47;;;6.20;99.90;;;;;;4908400;29;20064;-84
2021/12/05 10:20:20;;;;;;;4.78;2.53;;;6.10;99.90;;;;;;4899200;29;20399;-81
2021/12/05 10:38:33;;;;;;;6.93;2.22;;;6.30;99.90;;;;;;4962652;28;20059;-82
2021/12/05 10:42:53;;;;;;;;;;;;;;;;;;;;;
2021/12/05 10:46:08;;;;;;;;;;;;;;;;;;;;;
2021/12/05 10:49:41;;;;;;;5.95;2.80;;;6.40;99.90;;;;;;4974303;28;20039;-82
2021/12/05 10:52:22;;;;;;;6.03;2.90;;;7.20;99.90;;;;;;5046092;28;20052;-82
2021/12/05 10:59:34;;;;;;;;;;;;;;;;;;;;;
2021/12/05 11:07:02;;;;;;;6.70;2.80;;;6.40;99.90;;;;;;5054026;28;20049;-82
2021/12/05 11:10:43;;;;;;;5.20;2.53;;;6.30;99.90;;;;;;5057042;28;20052;-81
2021/12/05 11:14:15;;;;;;;4.35;2.30;;;6.40;99.90;;;;;;5047458;28;20044;-81
2021/12/05 11:18:07;;;;;;;5.85;2.25;;;5.60;99.90;;;;;;5043776;28;20052;-81
2021/12/05 11:22:07;;;;;;;7.63;2.97;;;5.00;99.90;;;;;;5057237;28;20076;-80
2021/12/05 11:25:42;;;;;;;6.47;2.20;;;6.40;99.90;;;;;;5040565;28;20525;-82
2021/12/05 11:29:04;;;;;;;;;;;;;;;;;;;;;
2021/12/05 11:32:44;;;;;;;7.95;2.83;;;6.40;99.90;;;;;;5048461;28;20071;-79
2021/12/05 11:36:13;;;;;;;;;;;6.50;99.90;;;;;;5065131;28;20040;-83
2021/12/05 11:40:13;;;;;;;;;;;;;;;;;;;;;
2021/12/05 11:43:58;;;;;;;4.53;2.43;;;6.40;99.90;;;;;;4986977;28;20050;-79
2021/12/05 11:48:28;;;;;;;3.85;2.55;;;6.40;99.90;;;;;;4992463;28;20047;-81
2021/12/05 11:51:52;;;;;;;8.57;2.80;;;6.40;99.90;;;;;;4984168;28;20035;-79
2021/12/05 11:54:55;;;;;;;7.72;3.20;;;6.50;99.90;;;;;;5007445;28;20679;-81
2021/12/05 11:58:17;;;;;;;5.00;2.50;;;6.40;99.90;;;;;;4961151;28;20051;-81
2021/12/05 12:01:11;;;;;;;5.20;3.33;;;6.40;99.90;;;;;;5047095;28;20053;-80
2021/12/05 12:04:25;;;;;;;6.55;2.20;;;7.90;99.90;;;;;;5037188;28;20069;-81
2021/12/05 12:07:45;;;;;;;3.33;2.58;;;6.60;99.90;;;;;;5059104;28;20045;-80
2021/12/05 12:11:01;;;;;;;4.22;3.13;;;6.40;99.90;;;;;;5018465;28;20052;-82
2021/12/05 12:14:15;;;;;;;11.00;3.65;;;6.40;99.90;;;;;;5023413;28;20085;-80
2021/12/05 12:17:20;;;;;;;6.75;2.90;;;6.60;99.90;;;;;;5061546;28;20051;-81
2021/12/05 12:20:32;;;;;;;4.53;2.22;;;6.50;99.90;;;;;;5061072;28;20064;-80
2021/12/05 12:23:28;;;;;;;10.15;4.13;;;6.50;99.90;;;;;;5044550;28;20042;-82
2021/12/05 12:26:40;;;;;;;5.43;3.85;;;6.50;99.90;;;;;;5049131;28;20063;-82
2021/12/05 12:29:40;;;;;;;3.30;2.55;;;6.50;99.90;;;;;;5026898;28;20055;-82
2021/12/05 12:32:42;;;;;;;;;;;;;;;;;;;;;
2021/12/05 12:35:28;;;;;;;6.78;3.50;;;6.50;99.90;;;;;;5041663;28;20049;-83
2021/12/05 12:39:07;;;;;;;;;;;;;;;;;;;;;
2021/12/05 12:42:43;;;;;;;7.00;3.15;;;6.40;99.90;;;;;;5043837;28;20049;-80
2021/12/05 12:49:18;;;;;;;7.95;4.13;;;6.50;99.90;;;;;;4967577;28;20075;-81
2021/12/05 12:52:02;;;;;;;;;;;;;;;;;;;;;
2021/12/05 12:55:11;;;;;;;5.60;3.38;;;6.50;99.90;;;;;;4948582;29;20047;-80
2021/12/05 12:58:48;;;;;;;11.25;4.05;;;6.50;99.90;;;;;;4968891;28;20062;-81
2021/12/05 13:14:08;;;;;;;5.38;2.92;;;6.60;99.90;;;;;;4982134;28;20066;-80
2021/12/05 13:18:05;;;;;;;12.60;4.27;;;6.60;99.90;;;;;;4977643;28;20058;-81
2021/12/05 13:28:31;;;;;;;5.53;3.47;;;6.60;99.90;;;;;;4995003;28;20062;-82
2021/12/05 13:32:12;;;;;;;6.88;4.45;;;6.60;99.90;;;;;;5005567;28;20057;-80
2021/12/05 13:42:09;;;;;;;18.15;6.30;;;5.90;99.90;;;;;;5001874;28;20057;-79
2021/12/05 13:45:12;;;;;;;13.50;5.25;;;6.70;99.90;;;;;;5008164;28;20065;-80
2021/12/05 13:48:57;;;;;;;9.73;5.05;;;5.80;99.90;;;;;;4983648;28;20051;-80
2021/12/05 13:52:24;;;;;;;11.00;5.82;;;6.60;99.90;;;;;;5032681;28;20049;-80
2021/12/05 13:55:58;;;;;;;9.35;4.78;;;5.80;99.90;;;;;;5016124;28;20045;-80
2021/12/05 13:59:15;;;;;;;14.38;6.15;;;6.60;99.90;;;;;;4650320;28;10000117;-80
2021/12/05 14:03:01;;;;;;;12.77;4.82;;;6.60;99.90;;;;;;4946621;28;20047;-80
2021/12/05 14:06:34;;;;;;;10.80;5.28;;;6.60;99.90;;;;;;4965157;28;20066;-81
2021/12/05 14:09:58;;;;;;;8.82;4.88;;;7.80;99.90;;;;;;4948259;28;20180;-81
2021/12/05 14:13:06;;;;;;;11.35;4.47;;;6.60;99.90;;;;;;4975962;28;20048;-81
2021/12/05 14:16:07;;;;;;;14.07;6.15;;;6.70;99.90;;;;;;5082258;28;20036;-79
2021/12/05 14:18:56;;;;;;;12.60;5.25;;;6.60;99.90;;;;;;5063812;28;20053;-79
2021/12/05 14:21:49;;;;;;;20.63;6.10;;;5.40;99.90;;;;;;5068128;28;20045;-80
2021/12/05 14:24:32;;;;;;;15.40;5.75;;;6.10;99.90;;;;;;5043945;28;20063;-84
2021/12/05 14:27:07;;;;;;;16.80;7.30;;;6.50;99.90;;;;;;5082087;28;20058;-81
2021/12/05 14:29:40;;;;;;;15.30;5.90;;;6.60;99.90;;;;;;5038453;28;20045;-81
2021/12/05 14:32:21;;;;;;;13.40;6.75;;;6.70;99.90;;;;;;5067207;28;20053;-81
2021/12/05 14:35:33;;;;;;;11.73;5.00;;;6.60;99.90;;;;;;5044663;28;20048;-80
2021/12/05 14:38:43;;;;;;;20.73;8.18;;;6.70;99.90;;;;;;5035024;28;20056;-80
2021/12/05 14:41:11;;;;;;;19.13;9.25;;;6.80;99.90;;;;;;5036174;28;20052;-79
2021/12/05 14:43:41;;;;;;;25.48;12.57;;;6.80;99.90;;;;;;5045780;28;20067;-79
2021/12/05 14:46:10;;;;;;;27.03;14.53;;;8.10;99.90;;;;;;5080668;28;20052;-81
2021/12/05 14:48:40;;;;;;;34.70;18.35;;;6.90;99.90;;;;;;5066325;28;20045;-81
2021/12/05 14:51:11;;;;;;;32.15;18.85;;;6.60;99.90;;;;;;5035062;28;20056;-80
2021/12/05 14:53:46;;;;;;;35.75;22.58;;;7.00;99.90;;;;;;5064867;28;20082;-81
2021/12/05 14:56:15;;;;;;;34.88;20.00;;;6.90;99.90;;;;;;5047907;28;20051;-81
2021/12/05 14:58:49;;;;;;;36.60;24.50;;;6.90;99.90;;;;;;5047856;28;20055;-81
2021/12/05 15:01:51;;;;;;;50.05;24.75;;;7.00;99.90;;;;;;5048841;28;20053;-80
2021/12/05 15:04:51;;;;;;;29.55;20.45;;;7.10;99.90;;;;;;5049878;28;20056;-81
2021/12/05 15:07:41;;;;;;;27.58;17.75;;;7.40;99.90;;;;;;5037648;28;20067;-82
2021/12/05 15:10:17;;;;;;;40.15;20.73;;;7.40;99.90;;;;;;5067210;28;20045;-81
2021/12/05 15:13:27;;;;;;;30.02;15.63;;;7.00;99.90;;;;;;5060048;28;20057;-81
2021/12/05 15:19:43;;;;;;;;;;;6.90;99.90;;;;;;5050380;28;20040;-83
2021/12/05 15:22:51;;;;;;;20.23;7.70;;;7.40;99.90;;;;;;5022269;28;19921;-81
2021/12/05 15:25:27;;;;;;;12.90;5.35;;;7.00;99.90;;;;;;5049676;28;20045;-83
2021/12/05 15:28:00;;;;;;;15.52;6.47;;;7.90;99.90;;;;;;5062133;28;20056;-81
2021/12/05 15:30:39;;;;;;;15.93;5.60;;;6.90;99.90;;;;;;5048244;28;20055;-81
2021/12/05 15:33:28;;;;;;;22.48;5.28;;;7.00;99.90;;;;;;5047135;28;20060;-82
2021/12/05 15:36:35;;;;;;;10.13;4.40;;;6.90;99.90;;;;;;5030323;28;20041;-82
2021/12/05 15:39:23;;;;;;;6.65;3.72;;;5.50;99.90;;;;;;5027164;28;20056;-81
2021/12/05 15:42:19;;;;;;;21.75;4.07;;;7.00;99.90;;;;;;5035774;28;20053;-81
2021/12/05 15:45:23;;;;;;;4.03;3.13;;;7.10;99.90;;;;;;5065466;28;20029;-82
2021/12/05 15:48:01;;;;;;;10.70;3.22;;;7.30;99.90;;;;;;5031870;28;20059;-82
2021/12/05 15:50:51;;;;;;;;;;;;;;;;;;;;;
2021/12/05 15:53:36;;;;;;;10.57;3.00;;;7.80;99.90;;;;;;5049787;28;20074;-80
2021/12/05 15:56:30;;;;;;;8.90;3.38;;;7.00;99.90;;;;;;5040984;28;20049;-81
2021/12/05 15:59:20;;;;;;;8.23;3.38;;;7.10;99.90;;;;;;5066346;28;20045;-81
2021/12/05 16:01:51;;;;;;;9.32;3.97;;;7.00;99.90;;;;;;5065133;28;20041;-79
2021/12/05 16:04:35;;;;;;;14.88;3.00;;;7.20;99.90;;;;;;5085665;28;20051;-82
2021/12/05 16:07:19;;;;;;;7.53;3.60;;;6.90;99.90;;;;;;4702151;28;10000072;-82
2021/12/05 16:10:14;;;;;;;3.40;2.35;;;7.20;99.90;;;;;;5046810;28;20059;-81
2021/12/05 16:12:53;;;;;;;9.18;3.05;;;6.90;99.90;;;;;;5045105;28;20063;-81
2021/12/05 16:16:03;;;;;;;12.18;3.92;;;6.80;99.90;;;;;;5077439;28;20059;-80
2021/12/05 16:18:48;;;;;;;;;;;;;;;;;;;;;
2021/12/05 16:21:33;;;;;;;6.90;2.10;;;6.80;99.90;;;;;;5047790;28;20047;-83
2021/12/05 16:24:19;;;;;;;8.20;2.08;;;5.80;99.90;;;;;;5063081;28;20040;-79
2021/12/05 16:27:05;;;;;;;8.40;2.83;;;6.70;99.90;;;;;;5036906;28;20045;-83
2021/12/05 16:29:36;;;;;;;13.38;3.55;;;6.10;99.90;;;;;;5048008;28;20057;-81
2021/12/05 16:32:05;;;;;;;8.20;2.78;;;6.70;99.90;;;;;;5047218;28;20052;-80
2021/12/05 16:34:42;;;;;;;8.48;2.63;;;6.40;99.90;;;;;;5062364;28;20052;-80
2021/12/05 16:37:12;;;;;;;8.02;3.28;;;6.60;99.90;;;;;;5045600;28;20044;-79
2021/12/05 16:39:55;;;;;;;14.13;2.72;;;6.60;99.90;;;;;;5042813;28;20037;-81
2021/12/05 16:42:30;;;;;;;5.43;2.40;;;6.50;99.90;;;;;;5061322;28;20045;-80
2021/12/05 16:44:59;;;;;;;10.55;3.08;;;6.50;99.90;;;;;;5028604;28;20075;-79
2021/12/05 16:47:30;;;;;;;7.45;2.67;;;5.10;99.90;;;;;;5043841;28;20052;-81
2021/12/05 16:50:01;;;;;;;9.80;3.50;;;6.50;99.90;;;;;;5062717;28;20047;-80
2021/12/05 16:52:42;;;;;;;8.05;2.40;;;5.00;99.90;;;;;;5047910;28;20049;-80
2021/12/05 16:55:25;;;;;;;15.18;3.33;;;6.50;99.90;;;;;;5048612;28;20048;-81
2021/12/05 16:58:09;;;;;;;6.97;3.08;;;6.40;99.90;;;;;;5080200;28;20047;-81
2021/12/05 17:00:52;;;;;;;11.15;4.13;;;7.10;99.90;;;;;;5033165;28;20053;-81
2021/12/05 17:03:28;;;;;;;6.63;3.00;;;6.00;99.90;;;;;;5044382;28;20040;-80
2021/12/05 17:06:15;;;;;;;7.22;2.90;;;6.00;99.90;;;;;;5048029;28;20056;-80
2021/12/05 17:08:45;;;;;;;8.63;2.33;;;6.50;99.90;;;;;;5078331;28;20218;-79
2021/12/05 17:11:21;;;;;;;10.00;5.15;;;6.50;99.90;;;;;;5060882;28;20060;-81
2021/12/05 17:13:53;;;;;;;14.95;3.33;;;6.50;99.90;;;;;;5042113;28;20052;-82
2021/12/05 17:16:28;;;;;;;3.67;2.38;;;6.80;99.90;;;;;;5046059;28;20048;-82
2021/12/05 17:19:06;;;;;;;5.28;2.03;;;6.50;99.90;;;;;;5048128;28;20048;-83
2021/12/05 17:21:48;;;;;;;15.50;3.78;;;6.50;99.90;;;;;;5042877;28;20060;-81
2021/12/05 17:24:28;;;;;;;14.93;3.83;;;6.50;99.90;;;;;;5052304;28;20040;-82
2021/12/05 17:27:24;;;;;;;10.93;3.72;;;6.40;99.90;;;;;;5059867;28;20053;-81
2021/12/05 17:29:53;;;;;;;6.55;2.88;;;6.40;99.90;;;;;;5046820;28;20051;-80
2021/12/05 17:32:35;;;;;;;7.78;2.67;;;6.30;99.90;;;;;;5065544;28;20036;-82
2021/12/05 17:35:13;;;;;;;5.53;3.00;;;6.10;99.90;;;;;;5059303;28;22063;-81
2021/12/05 17:37:50;;;;;;;15.13;4.53;;;6.50;99.90;;;;;;5061499;28;20067;-81
2021/12/05 17:40:34;;;;;;;11.05;2.60;;;6.50;99.90;;;;;;5062237;28;20534;-81
2021/12/05 17:43:06;;;;;;;7.15;2.45;;;6.60;99.90;;;;;;5082460;28;20048;-83
2021/12/05 17:45:38;;;;;;;4.38;2.33;;;6.50;99.90;;;;;;5061302;28;20056;-81
2021/12/05 17:48:09;;;;;;;7.80;3.72;;;6.50;99.90;;;;;;5064352;28;20048;-80
2021/12/05 17:50:41;;;;;;;7.32;3.40;;;6.20;99.90;;;;;;5061785;28;20048;-81
2021/12/05 17:53:30;;;;;;;6.80;3.60;;;6.50;99.90;;;;;;5061293;28;20047;-81
2021/12/05 17:56:09;;;;;;;13.55;3.13;;;6.40;99.90;;;;;;5063951;28;20046;-80
2021/12/05 17:59:04;;;;;;;9.45;4.07;;;6.40;99.90;;;;;;5047581;28;20044;-81
2021/12/05 18:04:19;;;;;;;10.52;3.67;;;6.40;99.90;;;;;;5061772;28;20064;-81
2021/12/05 18:06:49;;;;;;;12.52;3.63;;;6.40;99.90;;;;;;5064166;28;20163;-82
2021/12/05 18:09:19;;;;;;;7.85;3.92;;;6.40;99.90;;;;;;5047262;28;20055;-81
2021/12/05 18:11:50;;;;;;;6.90;3.25;;;6.30;99.90;;;;;;5061421;28;20048;-80
2021/12/05 18:14:21;;;;;;;12.55;4.30;;;6.30;99.90;;;;;;5047111;28;20061;-83
2021/12/05 18:16:50;;;;;;;13.23;3.08;;;6.40;99.90;;;;;;5062937;28;20048;-81
2021/12/05 18:19:21;;;;;;;9.88;2.47;;;6.30;99.90;;;;;;5051192;28;20045;-80
2021/12/05 18:21:53;;;;;;;12.80;3.78;;;6.60;99.90;;;;;;5061039;28;20056;-78
2021/12/05 18:24:23;;;;;;;13.02;2.78;;;6.70;99.90;;;;;;5047030;28;20056;-80
2021/12/05 18:27:03;;;;;;;15.50;3.63;;;6.30;99.90;;;;;;5054884;28;20059;-81
2021/12/05 18:29:35;;;;;;;14.82;3.65;;;6.30;99.90;;;;;;5053327;28;20056;-80
2021/12/05 18:32:11;;;;;;;16.45;4.20;;;6.50;99.90;;;;;;5067804;28;21832;-81
2021/12/05 18:34:40;;;;;;;8.90;3.53;;;6.30;99.90;;;;;;5050240;28;20738;-81
2021/12/05 18:37:20;;;;;;;10.60;4.07;;;6.70;99.90;;;;;;5065698;28;20048;-82
2021/12/05 18:39:52;;;;;;;8.07;3.00;;;6.20;99.90;;;;;;5034683;28;20052;-82
2021/12/05 18:42:23;;;;;;;6.95;2.95;;;6.20;99.90;;;;;;5046432;28;20041;-79
2021/12/05 18:44:59;;;;;;;17.33;4.78;;;6.40;99.90;;;;;;5081101;28;20044;-80
2021/12/05 18:47:36;;;;;;;7.68;3.35;;;6.30;99.90;;;;;;5047644;28;20068;-80
2021/12/05 18:50:07;;;;;;;9.65;3.20;;;6.30;99.90;;;;;;5064185;28;20045;-79
2021/12/05 18:52:38;;;;;;;6.85;3.08;;;6.30;99.90;;;;;;5082280;28;20048;-78
2021/12/05 18:55:16;;;;;;;14.00;3.78;;;6.30;99.90;;;;;;5051094;28;20044;-79
2021/12/05 18:57:52;;;;;;;10.35;2.80;;;6.40;99.90;;;;;;5062867;28;20042;-80
2021/12/05 19:06:43;;;;;;;9.57;3.13;;;6.50;99.90;;;;;;5063413;28;20059;-80
2021/12/05 19:11:55;;;;;;;6.38;3.20;;;6.70;99.90;;;;;;5053825;28;20032;-83
2021/12/05 19:14:51;;;;;;;10.93;3.57;;;6.60;99.90;;;;;;4717617;28;9999878;-81
2021/12/05 19:17:36;;;;;;;7.63;4.10;;;6.60;99.90;;;;;;5053651;28;20263;-81
2021/12/05 19:20:24;;;;;;;13.32;3.47;;;6.60;99.90;;;;;;5086734;28;20048;-81
2021/12/05 19:23:02;;;;;;;9.93;3.95;;;6.90;99.90;;;;;;5048250;28;20052;-85
2021/12/05 19:25:37;;;;;;;14.63;4.43;;;6.30;99.90;;;;;;5048392;28;20052;-80
2021/12/05 19:28:07;;;;;;;19.58;3.90;;;6.60;99.90;;;;;;5032905;28;20067;-81
2021/12/05 19:30:44;;;;;;;7.70;2.97;;;6.70;99.90;;;;;;5062851;28;20054;-78
2021/12/05 19:33:15;;;;;;;14.25;4.28;;;6.50;99.90;;;;;;5077235;28;20045;-78
2021/12/05 19:35:48;;;;;;;9.18;4.75;;;6.50;99.90;;;;;;5048658;28;20032;-80
2021/12/05 19:38:24;;;;;;;14.60;3.00;;;6.50;99.90;;;;;;5049499;28;20041;-81
2021/12/05 19:41:01;;;;;;;13.30;4.28;;;6.50;99.90;;;;;;5061359;28;20045;-80
2021/12/05 19:43:33;;;;;;;15.60;5.03;;;6.40;99.90;;;;;;5083015;28;20055;-81
2021/12/05 19:46:06;;;;;;;8.85;3.85;;;6.40;99.90;;;;;;5045211;28;20045;-81
2021/12/05 19:48:35;;;;;;;7.28;3.15;;;6.40;99.90;;;;;;5064036;28;20060;-81
2021/12/05 19:51:07;;;;;;;4.45;2.30;;;6.40;99.90;;;;;;5065730;28;20050;-79
2021/12/05 19:53:38;;;;;;;11.18;3.55;;;6.10;99.90;;;;;;5068438;28;20063;-79
2021/12/05 19:56:08;;;;;;;13.65;4.65;;;6.50;99.90;;;;;;5048958;28;20569;-82
2021/12/05 19:58:40;;;;;;;14.70;3.55;;;6.60;99.90;;;;;;5052829;28;20530;-80
2021/12/05 20:01:10;;;;;;;7.75;3.60;;;6.70;99.90;;;;;;5051204;28;20052;-81
2021/12/05 20:03:41;;;;;;;8.48;4.25;;;6.60;99.90;;;;;;5063520;28;20745;-79
2021/12/05 20:06:12;;;;;;;11.05;2.95;;;6.60;99.90;;;;;;5046640;28;20250;-83
2021/12/05 20:08:42;;;;;;;9.32;2.97;;;6.60;99.90;;;;;;5045165;28;20055;-79
2021/12/05 20:11:11;;;;;;;18.40;4.23;;;6.70;99.90;;;;;;5060765;28;20056;-79
2021/12/05 20:13:41;;;;;;;14.60;3.60;;;8.20;99.90;;;;;;5058219;28;20071;-79
2021/12/05 20:16:09;;;;;;;10.07;3.20;;;6.50;99.90;;;;;;5056609;28;20057;-80
2021/12/05 20:18:40;;;;;;;8.02;2.67;;;6.60;99.90;;;;;;5060361;28;20052;-82
2021/12/05 20:21:12;;;;;;;13.52;3.40;;;7.80;99.90;;;;;;5058628;28;20052;-82
2021/12/05 20:23:42;;;;;;;13.60;3.33;;;6.70;99.90;;;;;;5059923;28;20056;-78
2021/12/05 20:26:14;;;;;;;18.25;5.57;;;6.60;99.90;;;;;;5037610;28;20063;-79
2021/12/05 20:28:43;;;;;;;10.45;3.63;;;6.50;99.90;;;;;;5079278;28;20041;-80
2021/12/05 20:31:12;;;;;;;13.63;3.80;;;6.60;99.90;;;;;;5048141;28;20045;-81
2021/12/05 20:33:41;;;;;;;12.60;4.28;;;6.70;99.90;;;;;;5078319;28;20052;-80
2021/12/05 20:36:12;;;;;;;21.13;4.68;;;6.50;99.90;;;;;;5061438;28;20053;-78
2021/12/05 20:38:42;;;;;;;18.48;4.63;;;6.50;99.90;;;;;;5043642;28;20044;-82
2021/12/05 20:41:12;;;;;;;12.75;4.20;;;6.40;99.90;;;;;;5062048;28;20042;-80
2021/12/05 20:43:41;;;;;;;14.38;3.92;;;5.90;99.90;;;;;;5060164;28;20074;-79
2021/12/05 20:46:10;;;;;;;11.82;3.50;;;6.40;99.90;;;;;;5061630;28;20036;-81
2021/12/05 20:48:44;;;;;;;9.77;3.72;;;6.40;99.90;;;;;;5044391;28;20040;-80
2021/12/05 20:51:14;;;;;;;16.08;4.93;;;7.70;99.90;;;;;;5044252;28;20054;-81
2021/12/05 20:53:44;;;;;;;14.65;4.35;;;6.30;99.90;;;;;;5046550;28;20053;-81
2021/12/05 20:56:14;;;;;;;15.07;4.15;;;6.20;99.90;;;;;;5060883;28;20041;-81
2021/12/05 20:58:42;;;;;;;12.93;2.97;;;6.20;99.90;;;;;;5064085;28;20054;-79
2021/12/05 21:01:11;;;;;;;9.52;4.43;;;6.50;99.90;;;;;;5061153;28;20044;-80
2021/12/05 21:03:41;;;;;;;10.73;4.13;;;6.10;99.90;;;;;;5058369;28;20051;-80
2021/12/05 21:06:10;;;;;;;17.27;4.10;;;7.10;99.90;;;;;;5042201;28;20368;-78
2021/12/05 21:08:40;;;;;;;16.25;4.90;;;6.00;99.90;;;;;;5041930;28;20067;-80
2021/12/05 21:11:12;;;;;;;10.50;3.67;;;6.00;99.90;;;;;;5055977;28;20055;-82
2021/12/05 21:13:44;;;;;;;11.93;4.38;;;5.90;99.90;;;;;;5055387;28;20067;-80
2021/12/05 21:16:13;;;;;;;14.02;5.68;;;5.90;99.90;;;;;;5075970;28;20041;-80
2021/12/05 21:18:43;;;;;;;21.73;4.32;;;5.80;99.90;;;;;;5058975;28;20040;-78
2021/12/05 21:21:20;;;;;;;9.60;3.60;;;5.80;99.90;;;;;;5058891;28;20044;-78
2021/12/05 21:23:52;;;;;;;11.52;4.43;;;5.80;99.90;;;;;;5061159;28;20052;-79
2021/12/05 21:26:21;;;;;;;12.13;4.67;;;5.90;99.90;;;;;;5063691;28;20052;-80
2021/12/05 21:28:49;;;;;;;11.63;5.25;;;5.90;99.90;;;;;;5040040;28;20308;-78
2021/12/05 21:31:20;;;;;;;14.18;3.70;;;5.90;99.90;;;;;;5043279;28;20045;-79
2021/12/05 21:33:48;;;;;;;16.73;6.65;;;5.90;99.90;;;;;;5058526;28;20063;-80
2021/12/05 21:36:18;;;;;;;10.70;3.53;;;5.80;99.90;;;;;;5058197;28;20040;-78
2021/12/05 21:38:48;;;;;;;10.45;3.83;;;5.90;99.90;;;;;;5080616;28;20052;-80
2021/12/05 21:41:19;;;;;;;10.68;4.70;;;6.00;99.90;;;;;;5046274;28;20040;-80
2021/12/05 21:43:48;;;;;;;;;;;6.00;99.90;;;;;;5065020;28;20371;-80
2021/12/05 21:46:19;;;;;;;12.85;5.03;;;6.20;99.90;;;;;;5062501;28;19940;-78
2021/12/05 21:48:49;;;;;;;19.88;7.45;;;7.20;99.90;;;;;;5082509;28;20444;-78
2021/12/05 21:51:20;;;;;;;12.85;4.65;;;6.00;99.90;;;;;;5060386;28;20051;-78
2021/12/05 21:53:52;;;;;;;14.60;4.15;;;6.00;99.90;;;;;;5048572;28;20044;-79
2021/12/05 21:56:23;;;;;;;9.82;3.70;;;6.00;99.90;;;;;;5065303;28;20055;-79
2021/12/05 21:58:52;;;;;;;22.80;5.00;;;6.00;99.90;;;;;;5083015;28;20052;-79
2021/12/05 22:01:23;;;;;;;10.45;3.80;;;5.90;99.90;;;;;;5081778;28;20058;-78